TimeCST,TemperatureF,Dew PointF,Humidity,Sea Level PressureIn,VisibilityMPH,Wind Direction,Wind SpeedMPH,Gust SpeedMPH,PrecipitationIn,Events,Conditions,WindDirDegrees,DateUTC
12:02 AM,19.4,15.8,86,29.80,10.0,NNE,17.3,-,N/A,,Mostly Cloudy,20,2013-02-04 06:02:00
12:38 AM,17.6,14.0,86,29.82,10.0,NNE,19.6,-,N/A,,Overcast,20,2013-02-04 06:38:00
12:49 AM,17.6,14.0,86,29.83,10.0,NNE,18.4,-,N/A,,Overcast,20,2013-02-04 06:49:00
12:53 AM,18.0,14.0,84,29.89,10.0,NNE,19.6,-,N/A,,Overcast,20,2013-02-04 06:53:00
1:32 AM,17.6,12.2,79,29.83,9.0,NNE,20.7,-,N/A,,Overcast,20,2013-02-04 07:32:00
1:53 AM,17.1,12.9,84,29.90,10.0,NNE,20.7,-,N/A,,Overcast,30,2013-02-04 07:53:00
2:53 AM,16.0,12.0,84,29.92,10.0,NNE,17.3,-,N/A,,Overcast,30,2013-02-04 08:53:00
4:53 AM,15.1,10.0,80,29.97,10.0,North,13.8,-,N/A,,Overcast,10,2013-02-04 10:53:00
5:34 AM,14.0,8.6,79,29.93,10.0,North,20.7,-,N/A,,Overcast,10,2013-02-04 11:34:00
5:53 AM,14.0,9.0,80,29.99,7.0,North,16.1,-,0.00,Snow,Light Snow,360,2013-02-04 11:53:00
6:53 AM,12.9,8.1,81,30.03,10.0,North,12.7,-,0.00,,Overcast,10,2013-02-04 12:53:00
7:05 AM,12.2,6.8,79,29.97,8.0,North,12.7,-,N/A,,Overcast,10,2013-02-04 13:05:00
7:53 AM,10.0,5.0,80,30.05,8.0,North,6.9,-,N/A,,Clear,360,2013-02-04 13:53:00
8:27 AM,10.4,5.0,79,29.99,6.0,North,10.4,-,N/A,,Haze,360,2013-02-04 14:27:00
8:43 AM,10.4,5.0,79,29.99,6.0,North,10.4,-,N/A,,Haze,10,2013-02-04 14:43:00
8:53 AM,12.0,6.1,77,30.06,8.0,North,11.5,-,N/A,,Scattered Clouds,360,2013-02-04 14:53:00
9:01 AM,12.2,6.8,79,30.00,8.0,NNE,12.7,-,N/A,,Mostly Cloudy,20,2013-02-04 15:01:00
9:10 AM,12.2,6.8,79,30.00,8.0,North,10.4,-,N/A,,Scattered Clouds,10,2013-02-04 15:10:00
9:53 AM,14.0,6.1,71,30.09,10.0,North,8.1,-,N/A,,Clear,360,2013-02-04 15:53:00
10:53 AM,17.1,7.0,65,30.08,10.0,North,4.6,-,N/A,,Clear,360,2013-02-04 16:53:00
11:53 AM,19.0,8.1,62,30.06,10.0,NE,5.8,-,N/A,,Clear,40,2013-02-04 17:53:00
12:53 PM,21.0,10.0,63,30.04,10.0,North,5.8,-,N/A,,Clear,350,2013-02-04 18:53:00
1:53 PM,21.9,10.9,63,30.04,10.0,NNW,3.5,-,N/A,,Clear,330,2013-02-04 19:53:00
2:53 PM,21.9,12.0,66,30.01,10.0,WSW,3.5,-,N/A,,Partly Cloudy,240,2013-02-04 20:53:00
3:10 PM,21.2,12.2,68,29.95,10.0,West,4.6,-,N/A,,Mostly Cloudy,260,2013-02-04 21:10:00
3:49 PM,23.0,12.2,63,29.94,10.0,West,5.8,-,N/A,,Mostly Cloudy,280,2013-02-04 21:49:00
3:53 PM,23.0,12.9,65,30.01,10.0,WNW,4.6,-,N/A,,Mostly Cloudy,290,2013-02-04 21:53:00
4:53 PM,23.0,14.0,68,29.98,10.0,SW,5.8,-,N/A,,Mostly Cloudy,230,2013-02-04 22:53:00
5:53 PM,21.0,14.0,74,29.97,10.0,SSW,5.8,-,N/A,,Mostly Cloudy,210,2013-02-04 23:53:00
6:53 PM,21.0,15.1,78,29.94,10.0,SSW,5.8,-,N/A,,Mostly Cloudy,200,2013-02-05 00:53:00
7:53 PM,21.0,15.1,78,29.93,10.0,SSW,8.1,-,N/A,,Mostly Cloudy,210,2013-02-05 01:53:00
8:53 PM,23.0,16.0,74,29.92,10.0,SSW,10.4,-,N/A,,Overcast,210,2013-02-05 02:53:00
9:53 PM,23.0,16.0,74,29.90,10.0,SSW,8.1,-,N/A,,Mostly Cloudy,210,2013-02-05 03:53:00
10:53 PM,24.1,17.1,75,29.88,10.0,SSW,10.4,-,N/A,,Overcast,210,2013-02-05 04:53:00
11:53 PM,24.1,18.0,77,29.85,10.0,SSW,11.5,-,N/A,,Overcast,200,2013-02-05 05:53:00